电灯泡影院

 找回密码
 立即注册
搜索
热搜: 活动 交友 discuz
订阅

最新发表

标题 版块/群组 作者 回复/查看 最后发表
【哈皮·帕特尔】Happy Patel (2026)含外挂字幕 多版本- [售价 10 灯泡] attach_img 印度电影生肉集中营 电灯泡 2026-4-3 9250 iamRayhan 2026-4-17 18:29
【Vadh 2】2025含外挂字幕 多版本- [售价 5 灯泡] attach_img 印度电影生肉集中营 电灯泡 2026-4-3 3198 arkin 2026-4-20 15:13
【Vadam】2026含外挂字幕 多版本attach_img 印度电影生肉集中营 电灯泡 2026-4-3 8241 阿依努尔 2026-4-7 18:01
【Mrithyunjay】2026含外挂字幕 多版本attach_img 印度电影生肉集中营 电灯泡 2026-4-3 7258 sinzar 2026-4-26 21:42
【Konja Naal Poru Thalaiva】2025无字幕1080pattach_img 印度电影生肉集中营 电灯泡 2026-4-3 3210 凌宇 2026-4-7 09:45
【Hey Balwanth】2026含外挂字幕 多版本attach_img 印度电影生肉集中营 电灯泡 2026-4-3 6212 凌宇 2026-4-4 01:49
【Euphoria】2026含外挂字幕 多版本attach_img 印度电影生肉集中营 电灯泡 2026-4-3 7193 话痨兔 2026-4-7 16:12
【Eesha】2025含外挂字幕 多版本attach_img 印度电影生肉集中营 电灯泡 2026-4-3 6212 gggwang 2026-4-4 19:14
【Bhabhiji Ghar Par Hain Fun On The Run】2026含外挂字幕 多版本- [售价 6 灯泡] attach_img 印度电影生肉集中营 电灯泡 2026-4-3 8226 凌宇 2026-4-8 21:34
【任性】Temper.2015不含字幕1080p- [售价 5 灯泡] attach_img heatlevel 印度电影生肉集中营 电灯泡 2026-4-3 1154 电灯泡 2026-4-3 13:28
【女婿】Mappillai (2011)含外挂字幕1080p- [售价 8 灯泡] attach_img 印度电影生肉集中营 电灯泡 2026-4-1 1210 电灯泡 2026-4-1 21:42
【Sharafat】1970含外挂字幕1080p- [售价 10 灯泡] attach_img 印度电影生肉集中营 电灯泡 2026-4-1 1192 电灯泡 2026-4-1 14:14
【完美先生】Mr. Perfect (2011)含外挂字幕1080p 多版本- [售价 15 灯泡] attach_img heatlevel 印度电影生肉集中营 电灯泡 2026-4-1 1212 电灯泡 2026-4-1 14:08
【NIKAAH】1982含外挂字幕1080p- [售价 9 灯泡] attach_img 印度电影人工译本区 电灯泡 2026-4-1 1147 电灯泡 2026-4-1 13:59
【生死诉讼】My Lord (2026)含外挂字幕1080p 多版本- [售价 9 灯泡] attach_img 印度电影人工译本区 电灯泡 2026-4-1 9207 wenhuirr 2026-4-7 14:44
【Mass】又名Meri Jung One Man Army 2005含外挂字幕1080p- [售价 8 灯泡] attach_img 印度电影生肉集中营 电灯泡 2026-4-1 1199 电灯泡 2026-4-1 13:52
【就是不结婚】Kyaa Dil Ne Kahaa 2002含外挂字幕1080p- [售价 10 灯泡] attach_img 印度电影生肉集中营 电灯泡 2026-4-1 1182 电灯泡 2026-4-1 13:44
【我要结婚】Dulhan Hum Le Jayenge.2000.1080p含外挂字幕 大体积版- [售价 9 灯泡] attach_img 印度电影生肉集中营 电灯泡 2026-4-1 1190 电灯泡 2026-4-1 13:38
【人生绕圈圈】Loopa Lapeta (2022)官方中文字幕 多版本attach_img 印度电影生肉集中营 电灯泡 2026-4-1 3178 Allenpal 2026-4-5 19:41
【有时有时】Kabhi Kabhie (1976)含外挂字幕1080p- [售价 12 灯泡] attach_img 印度电影生肉集中营 电灯泡 2026-3-31 1160 电灯泡 2026-3-31 14:31
【The Freelancer】2023第一季全7集 含外挂字幕4Kattach_img 印度电视剧 电灯泡 2026-3-31 1187 Michael1108 2026-3-31 14:06
【Talash】1969含外挂字幕1080p- [售价 11 灯泡] attach_img 印度电影生肉集中营 电灯泡 2026-3-31 1180 电灯泡 2026-3-31 13:27
【Pudhupettai】Pudhu Pettai 2006含外挂字幕1080p- [售价 11 灯泡] attach_img 印度电影生肉集中营 电灯泡 2026-3-31 1191 电灯泡 2026-3-31 13:24
【Naya Daur】1957含外挂字幕1080p- [售价 10 灯泡] attach_img 印度电影生肉集中营 电灯泡 2026-3-31 1160 电灯泡 2026-3-31 13:21
【Hariyali Aur Rasta】1962含外挂字幕1080p- [售价 9 灯泡] attach_img 印度电影生肉集中营 电灯泡 2026-3-31 1174 电灯泡 2026-3-31 13:17
【Hamraaz】1967含外挂字幕1080p- [售价 8 灯泡] attach_img 印度电影生肉集中营 电灯泡 2026-3-31 1159 电灯泡 2026-3-31 13:12
【Do Raaste】1969含外挂字幕1080p- [售价 8 灯泡] attach_img 印度电影生肉集中营 电灯泡 2026-3-31 1156 电灯泡 2026-3-31 13:08
【Uruttu Uruttu】2025含外挂字幕4K- [售价 4 灯泡] attach_img 印度电影生肉集中营 电灯泡 2026-3-30 1183 电灯泡 2026-3-30 16:16
【Shakti】1982含外挂字幕1080p- [售价 11 灯泡] attach_img 印度电影生肉集中营 电灯泡 2026-3-30 1177 电灯泡 2026-3-30 16:12
【Har Har Gange】1979含外挂字幕1080p- [售价 9 灯泡] attach_img 印度电影生肉集中营 电灯泡 2026-3-30 1179 电灯泡 2026-3-30 16:09
【迷失】Sadma (1983)含外挂字幕1080p- [售价 7 灯泡] attach_img 印度电影生肉集中营 电灯泡 2026-3-30 1168 电灯泡 2026-3-30 15:52
【GUMRAH】1963含外挂字幕1080p- [售价 9 灯泡] attach_img 印度电影生肉集中营 电灯泡 2026-3-30 1176 电灯泡 2026-3-30 14:28
【友谊】Dosti 1964含外挂字幕1080p- [售价 7 灯泡] attach_img 印度电影生肉集中营 电灯泡 2026-3-30 1168 电灯泡 2026-3-30 14:24
【Anupama】1966含外挂字幕1080p- [售价 6 灯泡] attach_img 印度电影生肉集中营 电灯泡 2026-3-30 1169 电灯泡 2026-3-30 14:20
【孪女天分】ChaalBaaz (1989)含外挂字幕1080p- [售价 10 灯泡] attach_img 印度电影生肉集中营 电灯泡 2026-3-30 1176 电灯泡 2026-3-30 11:06
【巴德山神话】Khuda Gawah (1992)含外挂字幕 多版本- [售价 13 灯泡] attach_img 印度电影生肉集中营 电灯泡 2026-3-29 4199 wenhuirr 2026-3-31 18:29
【刀客罗密欧】O Romeo 2026中英字幕 自译4K- [售价 15 灯泡] attach_img 印度电影自译区 内嵌中文字幕 电灯泡 2026-3-29 3652 sinzar 2026-4-6 13:47
【孟买之恋】Bombay (1995)含外挂字幕1080p- [售价 4 灯泡] attach_img 印度电影生肉集中营 电灯泡 2026-3-28 1206 电灯泡 2026-3-28 18:39
【不要惧怕爱】Pyaar Kiya To Darna Kya 1998含外挂字幕1080p- [售价 10 灯泡] attach_img 印度电影生肉集中营 电灯泡 2026-3-28 1181 电灯泡 2026-3-28 14:41
【Muthu Alias Kaattaan】2026第一季全10集 含外挂字幕 多版本attach_img 印度电视剧 电灯泡 2026-3-28 0259 电灯泡 2026-3-28 13:13
【Valathu Vashathe Kallan】2026含外挂字幕 多版本attach_img 印度电影生肉集中营 电灯泡 2026-3-28 7285 huminrain 2026-4-30 20:53
【Repu Udayam 10 Gantalaku】2026含外挂字幕 多版本attach_img 印度电影生肉集中营 电灯泡 2026-3-28 6226 XUXU66222 2026-4-6 15:09
【Masthishka Maranam】2026含外挂字幕1080p多版本attach_img 印度电影生肉集中营 电灯泡 2026-3-28 4225 Candiy 2026-4-1 07:51
【Maayabimbum】2026含外挂字幕 多版本attach_img 印度电影生肉集中营 电灯泡 2026-3-28 7209 话痨兔 2026-4-5 09:42
【印度人】Indian 2001含外挂字幕1080p- [售价 5 灯泡] attach_img 印度电影生肉集中营 电灯泡 2026-3-27 1197 电灯泡 2026-3-27 23:40
【Dhurandhar The Revenge】2025内嵌英文字幕1080p枪版attach_img 世界各国电影 抢先版 电灯泡 2026-3-27 1295 电灯泡 2026-3-27 13:23
【O Romeo】2026含外挂字幕 多版本- [售价 15 灯泡] attach_img  ...23 印度电影生肉集中营 电灯泡 2026-3-27 28543 zq9413 2026-4-18 04:08
【浴火巾帼3】Mardaani 3 (2026)含外挂官方简繁字幕 多版本- [售价 13 灯泡] attach_img  ...2 印度电影生肉集中营 电灯泡 2026-3-27 14609 junyi1962 2026-4-30 20:21
【Rajkumar】1964含外挂字幕1080p- [售价 11 灯泡] attach_img 印度电影生肉集中营 电灯泡 2026-3-26 1177 电灯泡 2026-3-26 15:54
【Neel Kamal】1968含外挂字幕1080p- [售价 10 灯泡] attach_img 印度电影生肉集中营 电灯泡 2026-3-26 1166 电灯泡 2026-3-26 15:51

Archiver|手机版|小黑屋|电灯泡影院

GMT+8, 2026-5-8 01:25 , Processed in 0.037276 second(s), 11 queries .

Powered by Discuz! X3.4

Copyright © 2001-2020, Tencent Cloud.

返回顶部